Time;durP1;ratioP1;P1;durP2;ratioP2;P2;SDS_P1;SDS_P2;PMS_P1;PMS_P2;Temp;Humidity;BMP_temperature;BMP_pressure;BME280_temperature;BME280_humidity;BME280_pressure;Samples;Min_cycle;Max_cycle;Signal;HPM_P1;HPM_P2
2021/09/14 00:03:35;;;;;;;5.63;4.30;;;;;;;;;;10388391;28;20049;-88
2021/09/14 00:08:36;;;;;;;7.88;4.05;;;;;;;;;;10383388;28;20053;-88
2021/09/14 00:13:36;;;;;;;5.60;4.27;;;;;;;;;;10393905;28;20069;-86
2021/09/14 00:18:36;;;;;;;5.40;3.80;;;;;;;;;;10362804;28;20473;-85
2021/09/14 00:23:37;;;;;;;7.37;4.00;;;;;;;;;;10393126;28;20468;-85
2021/09/14 00:28:38;;;;;;;20.75;4.35;;;;;;;;;;10368806;28;20117;-86
2021/09/14 00:33:38;;;;;;;10.07;4.37;;;;;;;;;;10388296;28;20083;-87
2021/09/14 00:38:38;;;;;;;5.43;4.30;;;;;;;;;;10379177;28;20040;-85
2021/09/14 00:43:39;;;;;;;8.63;4.03;;;;;;;;;;10379341;28;20050;-86
2021/09/14 00:48:39;;;;;;;5.53;4.13;;;;;;;;;;10386452;28;20029;-84
2021/09/14 00:53:40;;;;;;;10.07;4.43;;;;;;;;;;10372212;28;20378;-84
2021/09/14 00:58:41;;;;;;;7.40;3.60;;;;;;;;;;10362877;28;20116;-86
2021/09/14 01:03:41;;;;;;;6.78;4.25;;;;;;;;;;10380522;28;20034;-84
2021/09/14 01:08:42;;;;;;;4.97;4.20;;;;;;;;;;10373554;28;20450;-83
2021/09/14 01:13:42;;;;;;;9.45;4.05;;;;;;;;;;10377618;28;20036;-83
2021/09/14 01:18:42;;;;;;;13.27;4.20;;;;;;;;;;10352001;28;20037;-84
2021/09/14 01:23:43;;;;;;;5.10;3.60;;;;;;;;;;10363963;28;20548;-84
2021/09/14 01:28:43;;;;;;;9.20;4.57;;;;;;;;;;10378336;28;20382;-83
2021/09/14 01:33:51;;;;;;;9.20;4.00;;;;;;;;;;10358662;28;20072;-83
2021/09/14 01:38:52;;;;;;;10.25;4.03;;;;;;;;;;10369349;28;20048;-82
2021/09/14 01:43:52;;;;;;;6.50;3.70;;;;;;;;;;10363002;28;20176;-82
2021/09/14 01:48:52;;;;;;;6.70;3.70;;;;;;;;;;10377494;28;20026;-82
2021/09/14 01:53:55;;;;;;;4.70;4.10;;;;;;;;;;10369613;28;20516;-84
2021/09/14 01:58:56;;;;;;;5.57;3.90;;;;;;;;;;10399729;28;20014;-84
2021/09/14 02:56:34;;;;;;;4.85;3.95;;;;;;;;;;10376026;28;20061;-88
2021/09/14 03:01:34;;;;;;;4.50;3.42;;;;;;;;;;10364797;28;20121;-87
2021/09/14 03:06:34;;;;;;;3.73;3.13;;;;;;;;;;10372326;28;20057;-87
2021/09/14 03:11:35;;;;;;;6.43;3.63;;;;;;;;;;10375011;28;20490;-86
2021/09/14 03:16:36;;;;;;;4.88;3.53;;;;;;;;;;10379030;28;20026;-86
2021/09/14 03:21:36;;;;;;;5.00;3.88;;;;;;;;;;10359713;28;20113;-85
2021/09/14 03:26:37;;;;;;;4.30;3.57;;;;;;;;;;10355087;28;20061;-87
2021/09/14 03:31:38;;;;;;;7.93;3.97;;;;;;;;;;10354708;28;20463;-89
2021/09/14 03:36:39;;;;;;;6.93;3.97;;;;;;;;;;10368049;28;20459;-89
2021/09/14 03:41:39;;;;;;;6.85;3.90;;;;;;;;;;10367177;28;20061;-88
2021/09/14 03:46:40;;;;;;;4.63;4.03;;;;;;;;;;10347004;28;20454;-89
2021/09/14 03:51:40;;;;;;;4.73;3.90;;;;;;;;;;10363522;28;20448;-89
2021/09/14 03:56:41;;;;;;;6.97;3.90;;;;;;;;;;10358421;28;20093;-86
2021/09/14 04:01:43;;;;;;;4.43;3.70;;;;;;;;;;10368992;28;20026;-87
2021/09/14 04:07:11;;;;;;;5.82;3.58;;;;;;;;;;10372483;28;20018;-87
2021/09/14 04:12:11;;;;;;;;;;;;;;;;;;10376182;28;20058;-85
2021/09/14 04:17:12;;;;;;;4.93;3.85;;;;;;;;;;10372920;28;19909;-86
2021/09/14 04:22:12;;;;;;;5.25;3.70;;;;;;;;;;10366474;28;20030;-90
2021/09/14 04:27:13;;;;;;;4.43;3.35;;;;;;;;;;10366695;28;20121;-88
2021/09/14 04:32:13;;;;;;;6.50;3.43;;;;;;;;;;10370295;28;20481;-89
2021/09/14 04:37:14;;;;;;;4.17;3.77;;;;;;;;;;10361368;28;20463;-90
2021/09/14 04:42:14;;;;;;;3.67;3.23;;;;;;;;;;10357450;28;20503;-87
2021/09/14 04:47:14;;;;;;;3.65;3.10;;;;;;;;;;10388566;28;20487;-88
2021/09/14 04:52:15;;;;;;;4.87;3.50;;;;;;;;;;10374326;28;20057;-89
2021/09/14 04:57:16;;;;;;;3.93;3.30;;;;;;;;;;10374370;28;20451;-85
2021/09/14 05:02:16;;;;;;;4.45;3.60;;;;;;;;;;10366839;28;20463;-87
2021/09/14 05:07:17;;;;;;;3.83;3.30;;;;;;;;;;10365192;28;20045;-87
2021/09/14 05:12:17;;;;;;;5.33;3.60;;;;;;;;;;10368632;28;20382;-86
2021/09/14 05:17:18;;;;;;;6.73;3.77;;;;;;;;;;10363554;28;20038;-88
2021/09/14 05:22:22;;;;;;;4.13;3.73;;;;;;;;;;10371602;28;20806;-85
2021/09/14 05:27:22;;;;;;;7.60;3.50;;;;;;;;;;10355953;28;20038;-81
2021/09/14 05:32:23;;;;;;;6.17;3.60;;;;;;;;;;10355653;28;20081;-84
2021/09/14 05:37:23;;;;;;;6.95;3.42;;;;;;;;;;10364098;28;20459;-84
2021/09/14 05:42:23;;;;;;;3.73;3.00;;;;;;;;;;10362538;28;20088;-84
2021/09/14 05:47:24;;;;;;;3.33;2.90;;;;;;;;;;10374738;28;20076;-85
2021/09/14 05:52:24;;;;;;;7.87;3.37;;;;;;;;;;10356912;28;20038;-82
2021/09/14 05:57:24;;;;;;;5.23;3.33;;;;;;;;;;10358444;28;20108;-79
2021/09/14 06:02:25;;;;;;;4.90;3.47;;;;;;;;;;10363966;28;20448;-83
2021/09/14 06:07:25;;;;;;;4.30;3.30;;;;;;;;;;10367688;28;20061;-78
2021/09/14 06:12:26;;;;;;;5.13;3.50;;;;;;;;;;10363755;28;20041;-79
2021/09/14 06:17:26;;;;;;;5.25;3.38;;;;;;;;;;10369747;28;20069;-79
2021/09/14 06:22:27;;;;;;;4.43;3.40;;;;;;;;;;10368950;28;20038;-79
2021/09/14 06:27:27;;;;;;;4.93;3.22;;;;;;;;;;10375531;28;20382;-79
2021/09/14 06:32:28;;;;;;;5.10;3.10;;;;;;;;;;10375166;28;20034;-79
2021/09/14 06:37:28;;;;;;;3.30;3.00;;;;;;;;;;10375232;28;20508;-77
2021/09/14 06:42:29;;;;;;;4.23;3.37;;;;;;;;;;10364120;28;20543;-79
2021/09/14 06:47:29;;;;;;;4.15;3.53;;;;;;;;;;10340254;28;20041;-78
2021/09/14 06:52:30;;;;;;;8.97;3.47;;;;;;;;;;10337399;28;20022;-78
2021/09/14 06:57:30;;;;;;;4.93;3.43;;;;;;;;;;10366609;28;20493;-76
2021/09/14 07:02:30;;;;;;;21.40;19.73;;;;;;;;;;10339054;28;20031;-77
2021/09/14 07:07:31;;;;;;;20.97;19.37;;;;;;;;;;10347781;28;20476;-77
2021/09/14 07:12:32;;;;;;;20.93;19.50;;;;;;;;;;10365313;28;20547;-78
2021/09/14 07:17:33;;;;;;;20.92;19.10;;;;;;;;;;10345497;28;20528;-78
2021/09/14 07:22:33;;;;;;;21.73;19.92;;;;;;;;;;10340526;28;20022;-78
2021/09/14 07:27:34;;;;;;;21.00;19.50;;;;;;;;;;10353991;28;20060;-79
2021/09/14 07:32:35;;;;;;;21.10;19.55;;;;;;;;;;10338269;28;20117;-77
2021/09/14 07:37:35;;;;;;;21.17;19.58;;;;;;;;;;10361318;28;20065;-79
2021/09/14 07:42:35;;;;;;;20.63;19.03;;;;;;;;;;10381466;23;20047;-85
2021/09/14 07:47:36;;;;;;;21.73;20.00;;;;;;;;;;10333948;28;20041;-84
2021/09/14 07:52:37;;;;;;;20.57;19.17;;;;;;;;;;10332080;28;20042;-84
2021/09/14 07:57:37;;;;;;;20.50;19.00;;;;;;;;;;10333154;28;20456;-84
2021/09/14 08:02:38;;;;;;;21.30;19.90;;;;;;;;;;10330578;28;20168;-84
2021/09/14 08:07:38;;;;;;;12.85;4.72;;;;;;;;;;10330674;28;20031;-86
2021/09/14 08:12:38;;;;;;;19.47;4.77;;;;;;;;;;10341759;28;20121;-86
2021/09/14 08:17:39;;;;;;;7.17;4.50;;;;;;;;;;10321834;28;20890;-85
2021/09/14 08:22:39;;;;;;;6.20;4.20;;;;;;;;;;10327275;28;20036;-86
2021/09/14 08:27:41;;;;;;;6.97;4.03;;;;;;;;;;10354031;28;20072;-85
2021/09/14 08:32:42;;;;;;;7.40;3.80;;;;;;;;;;10328149;28;20030;-85
2021/09/14 08:37:43;;;;;;;7.40;4.20;;;;;;;;;;10337022;28;20030;-87
2021/09/14 08:42:43;;;;;;;6.93;4.22;;;;;;;;;;10347130;28;20046;-87
2021/09/14 08:47:45;;;;;;;5.03;4.10;;;;;;;;;;10332606;28;20454;-87
2021/09/14 08:52:45;;;;;;;9.25;4.57;;;;;;;;;;10341993;28;20444;-85
2021/09/14 08:57:51;;;;;;;6.63;4.27;;;;;;;;;;10352329;28;20034;-86
2021/09/14 09:02:55;;;;;;;11.90;4.55;;;;;;;;;;10344184;28;20033;-87
2021/09/14 09:07:55;;;;;;;8.20;4.47;;;;;;;;;;10350834;28;20065;-86
2021/09/14 09:13:04;;;;;;;7.18;4.57;;;;;;;;;;10351331;28;20045;-87
2021/09/14 09:18:13;;;;;;;8.48;4.72;;;;;;;;;;10341124;28;20038;-87
2021/09/14 09:23:19;;;;;;;7.35;4.80;;;;;;;;;;10349098;28;20031;-92
2021/09/14 09:28:22;;;;;;;7.80;4.80;;;;;;;;;;10319941;28;20060;-87
2021/09/14 09:33:30;;;;;;;7.15;4.47;;;;;;;;;;10316389;28;20030;-92
2021/09/14 09:38:33;;;;;;;9.88;5.35;;;;;;;;;;10315261;28;20165;-90
2021/09/14 09:43:33;;;;;;;5.45;4.50;;;;;;;;;;10334246;28;20387;-88
2021/09/14 09:48:36;;;;;;;8.35;5.00;;;;;;;;;;10331776;28;20039;-89
2021/09/14 09:53:38;;;;;;;8.60;4.68;;;;;;;;;;10316979;28;20121;-91
2021/09/14 09:58:42;;;;;;;8.45;4.82;;;;;;;;;;10335172;28;20092;-92
2021/09/14 10:04:03;;;;;;;9.68;5.50;;;;;;;;;;10339515;28;20038;-95
2021/09/14 10:09:03;;;;;;;6.53;4.90;;;;;;;;;;10319113;28;21339;-96
2021/09/14 10:14:15;;;;;;;8.95;5.00;;;;;;;;;;10343400;28;20034;-94
2021/09/14 10:19:27;;;;;;;6.22;4.60;;;;;;;;;;10326644;28;20031;-96
2021/09/14 10:24:29;;;;;;;6.13;4.68;;;;;;;;;;10323372;28;20077;-92
2021/09/14 10:29:30;;;;;;;5.22;4.57;;;;;;;;;;10320990;28;20030;-96
2021/09/14 10:34:32;;;;;;;6.72;4.75;;;;;;;;;;10323185;28;20434;-95
2021/09/14 10:39:35;;;;;;;8.43;4.75;;;;;;;;;;10321208;28;20041;-92
2021/09/14 10:44:36;;;;;;;5.82;4.63;;;;;;;;;;10336429;28;20046;-94
2021/09/14 10:49:42;;;;;;;8.73;4.33;;;;;;;;;;10302533;28;20529;-91
2021/09/14 10:54:48;;;;;;;8.52;5.07;;;;;;;;;;10327343;28;20504;-89
2021/09/14 10:59:50;;;;;;;7.80;4.57;;;;;;;;;;10318070;28;20036;-88
2021/09/14 11:04:50;;;;;;;5.45;4.90;;;;;;;;;;10315467;28;20026;-87
2021/09/14 11:09:56;;;;;;;6.47;4.50;;;;;;;;;;10321314;28;20026;-91
2021/09/14 11:14:59;;;;;;;5.82;4.20;;;;;;;;;;10352718;28;20488;-92
2021/09/14 11:20:18;;;;;;;6.10;3.90;;;;;;;;;;10314651;28;20061;-88
2021/09/14 11:25:21;;;;;;;5.63;4.68;;;;;;;;;;10313864;28;20481;-86
2021/09/14 11:30:21;;;;;;;6.07;4.55;;;;;;;;;;10305406;28;20026;-85
2021/09/14 11:35:22;;;;;;;5.18;4.18;;;;;;;;;;10322231;28;20482;-86
2021/09/14 11:40:23;;;;;;;8.93;4.05;;;;;;;;;;10326618;28;20404;-86
2021/09/14 11:45:25;;;;;;;7.65;4.35;;;;;;;;;;10347137;28;20051;-89
2021/09/14 11:50:28;;;;;;;4.13;3.72;;;;;;;;;;10298380;28;20031;-90
2021/09/14 11:55:29;;;;;;;4.38;3.97;;;;;;;;;;10312418;28;20032;-89
2021/09/14 12:00:38;;;;;;;5.22;3.90;;;;;;;;;;10314699;28;20034;-89
2021/09/14 12:05:38;;;;;;;7.25;3.92;;;;;;;;;;10332279;28;20371;-89
2021/09/14 12:10:48;;;;;;;4.68;3.95;;;;;;;;;;10335884;28;20038;-89
2021/09/14 12:15:49;;;;;;;4.65;3.80;;;;;;;;;;10306802;28;20061;-88
2021/09/14 12:20:50;;;;;;;6.95;3.90;;;;;;;;;;10334949;28;20061;-90
2021/09/14 12:25:50;;;;;;;5.50;4.00;;;;;;;;;;10318646;28;20026;-90
2021/09/14 12:30:50;;;;;;;4.27;3.77;;;;;;;;;;10310964;28;20030;-88
2021/09/14 12:35:52;;;;;;;5.10;3.93;;;;;;;;;;10339335;28;20034;-89
2021/09/14 12:40:52;;;;;;;6.40;3.80;;;;;;;;;;10309030;28;20038;-87
2021/09/14 12:45:53;;;;;;;4.17;3.47;;;;;;;;;;10317947;28;20050;-86
2021/09/14 12:50:54;;;;;;;6.50;4.15;;;;;;;;;;10311030;28;20033;-86
2021/09/14 12:55:54;;;;;;;6.25;3.95;;;;;;;;;;10322724;28;20038;-86
2021/09/14 13:00:54;;;;;;;3.70;3.30;;;;;;;;;;10323608;28;20045;-86
2021/09/14 13:05:55;;;;;;;7.87;3.73;;;;;;;;;;10327681;28;20045;-86
2021/09/14 13:10:56;;;;;;;9.73;3.83;;;;;;;;;;10307728;28;20034;-85
2021/09/14 13:16:13;;;;;;;5.10;3.58;;;;;;;;;;10326877;28;20027;-86
2021/09/14 13:21:14;;;;;;;5.38;3.15;;;;;;;;;;10308493;28;20041;-85
2021/09/14 13:26:15;;;;;;;4.75;3.40;;;;;;;;;;10327340;28;20037;-85
2021/09/14 13:31:16;;;;;;;3.55;3.25;;;;;;;;;;10330655;28;20034;-85
2021/09/14 13:36:16;;;;;;;5.63;3.42;;;;;;;;;;10342706;28;20128;-88
2021/09/14 13:41:18;;;;;;;5.18;3.72;;;;;;;;;;10322234;28;20064;-88
2021/09/14 13:46:19;;;;;;;6.07;3.80;;;;;;;;;;10319985;28;20045;-87
2021/09/14 13:51:26;;;;;;;4.18;3.30;;;;;;;;;;10327496;28;20034;-89
2021/09/14 13:56:30;;;;;;;7.32;3.47;;;;;;;;;;10329141;28;20032;-87
2021/09/14 14:01:30;;;;;;;5.03;3.45;;;;;;;;;;10315363;28;20034;-86
2021/09/14 14:06:31;;;;;;;7.00;3.53;;;;;;;;;;10334926;28;20069;-85
2021/09/14 14:11:31;;;;;;;5.40;4.07;;;;;;;;;;10336147;28;20034;-85
2021/09/14 14:16:32;;;;;;;6.80;3.77;;;;;;;;;;10333993;28;20436;-87
2021/09/14 14:21:33;;;;;;;6.20;3.45;;;;;;;;;;10317390;28;20069;-85
2021/09/14 14:26:33;;;;;;;6.05;3.30;;;;;;;;;;10322270;28;20062;-85
2021/09/14 14:31:33;;;;;;;4.60;3.25;;;;;;;;;;10333914;28;20118;-85
2021/09/14 14:36:34;;;;;;;4.87;3.40;;;;;;;;;;10333863;28;20109;-92
2021/09/14 14:41:34;;;;;;;6.15;3.40;;;;;;;;;;10281802;28;1253481;-85
2021/09/14 14:46:35;;;;;;;4.13;3.40;;;;;;;;;;10339627;28;20034;-86
2021/09/14 14:51:36;;;;;;;4.93;3.70;;;;;;;;;;10325808;28;20108;-86
2021/09/14 14:56:38;;;;;;;4.05;3.30;;;;;;;;;;10345728;28;20029;-89
2021/09/14 15:01:39;;;;;;;5.55;3.40;;;;;;;;;;10316867;28;20040;-86
2021/09/14 15:06:39;;;;;;;4.95;3.22;;;;;;;;;;10351997;28;20437;-85
2021/09/14 15:11:40;;;;;;;3.43;2.93;;;;;;;;;;10347056;28;20026;-86
2021/09/14 15:16:40;;;;;;;5.87;3.33;;;;;;;;;;10364855;28;20054;-83
2021/09/14 15:21:41;;;;;;;6.63;3.43;;;;;;;;;;10359027;28;20463;-84
2021/09/14 15:26:41;;;;;;;7.33;3.00;;;;;;;;;;10337407;28;20029;-82
2021/09/14 15:31:41;;;;;;;4.70;3.10;;;;;;;;;;10337518;28;20527;-83
2021/09/14 15:36:42;;;;;;;4.50;3.50;;;;;;;;;;10315139;28;20046;-84
2021/09/14 15:41:42;;;;;;;4.70;3.22;;;;;;;;;;10332819;28;20043;-83
2021/09/14 15:46:44;;;;;;;4.18;2.90;;;;;;;;;;10335135;28;20030;-81
2021/09/14 15:51:44;;;;;;;3.75;2.83;;;;;;;;;;10333796;28;20533;-82
2021/09/14 15:56:45;;;;;;;4.78;3.42;;;;;;;;;;10344368;28;20026;-82
2021/09/14 16:01:46;;;;;;;5.50;3.10;;;;;;;;;;10344234;28;20067;-82
2021/09/14 16:06:46;;;;;;;4.17;3.27;;;;;;;;;;10344353;28;20065;-82
2021/09/14 16:11:46;;;;;;;3.70;3.27;;;;;;;;;;10325191;28;20034;-82
2021/09/14 16:16:47;;;;;;;4.45;3.25;;;;;;;;;;10338211;28;20030;-81
2021/09/14 16:21:48;;;;;;;5.55;2.97;;;;;;;;;;10348013;28;20117;-83
2021/09/14 16:26:48;;;;;;;2.95;2.60;;;;;;;;;;10347837;28;20034;-82
2021/09/14 16:31:54;;;;;;;3.53;2.87;;;;;;;;;;10347993;28;20350;-82
2021/09/14 16:36:54;;;;;;;3.00;2.70;;;;;;;;;;10342452;28;20061;-83
2021/09/14 16:41:55;;;;;;;3.42;2.75;;;;;;;;;;10346928;28;20069;-82
2021/09/14 16:46:55;;;;;;;3.70;2.92;;;;;;;;;;10336389;28;20125;-82
2021/09/14 16:52:00;;;;;;;5.07;3.00;;;;;;;;;;10338978;28;20034;-83
2021/09/14 16:57:01;;;;;;;3.60;3.05;;;;;;;;;;10337056;28;20113;-82
2021/09/14 17:02:01;;;;;;;3.53;2.83;;;;;;;;;;10336699;28;20444;-82
2021/09/14 17:07:02;;;;;;;3.38;2.75;;;;;;;;;;10314073;28;20386;-82
2021/09/14 17:12:02;;;;;;;3.30;2.63;;;;;;;;;;10313349;28;20129;-82
2021/09/14 17:17:03;;;;;;;3.42;2.80;;;;;;;;;;10336617;28;20038;-82
2021/09/14 17:22:04;;;;;;;4.93;2.95;;;;;;;;;;10318657;28;20034;-82
2021/09/14 17:27:04;;;;;;;3.22;2.78;;;;;;;;;;10338349;28;20029;-82
2021/09/14 17:32:05;;;;;;;3.03;2.70;;;;;;;;;;10329227;28;20061;-81
2021/09/14 17:37:06;;;;;;;4.53;2.70;;;;;;;;;;10349314;28;20034;-81
2021/09/14 17:42:07;;;;;;;3.70;2.80;;;;;;;;;;10342274;28;20090;-82
2021/09/14 17:47:07;;;;;;;6.57;2.70;;;;;;;;;;10340639;28;20556;-83
2021/09/14 17:52:07;;;;;;;3.95;3.55;;;;;;;;;;10329185;28;20138;-82
2021/09/14 17:57:08;;;;;;;5.50;3.33;;;;;;;;;;10315656;28;20101;-83
2021/09/14 18:02:08;;;;;;;5.37;3.97;;;;;;;;;;10320781;28;21037;-81
2021/09/14 18:07:09;;;;;;;7.28;3.50;;;;;;;;;;10325808;28;20422;-81
2021/09/14 18:12:09;;;;;;;5.13;3.67;;;;;;;;;;10335450;28;20386;-81
2021/09/14 18:17:10;;;;;;;6.43;3.67;;;;;;;;;;10311483;28;20042;-81
2021/09/14 18:22:10;;;;;;;11.88;3.78;;;;;;;;;;10321108;28;20588;-81
2021/09/14 18:27:10;;;;;;;6.43;3.83;;;;;;;;;;10327898;28;20085;-81
2021/09/14 18:32:11;;;;;;;5.57;3.60;;;;;;;;;;10331144;28;20452;-81
2021/09/14 18:37:11;;;;;;;10.10;3.93;;;;;;;;;;10334982;28;20104;-81
2021/09/14 18:42:12;;;;;;;15.10;4.50;;;;;;;;;;10321933;28;20051;-87
2021/09/14 18:47:13;;;;;;;8.00;3.60;;;;;;;;;;10314934;28;20125;-84
2021/09/14 18:52:13;;;;;;;9.60;3.58;;;;;;;;;;10332523;28;20085;-84
2021/09/14 18:57:14;;;;;;;8.87;4.10;;;;;;;;;;10339043;28;20030;-85
2021/09/14 19:02:15;;;;;;;5.67;4.00;;;;;;;;;;10341924;28;20448;-82
2021/09/14 19:07:15;;;;;;;7.68;3.70;;;;;;;;;;10344761;28;20034;-83
2021/09/14 19:12:16;;;;;;;10.03;3.97;;;;;;;;;;10331247;28;20037;-82
2021/09/14 19:17:16;;;;;;;8.65;3.97;;;;;;;;;;10337439;28;20444;-82
2021/09/14 19:22:16;;;;;;;9.17;4.50;;;;;;;;;;10335450;28;20030;-82
2021/09/14 19:27:17;;;;;;;6.77;3.80;;;;;;;;;;10339775;28;20982;-81
2021/09/14 19:32:17;;;;;;;12.23;4.40;;;;;;;;;;10320739;28;20060;-83
2021/09/14 19:37:18;;;;;;;8.53;4.50;;;;;;;;;;10325801;28;20041;-83
2021/09/14 19:42:18;;;;;;;10.50;4.30;;;;;;;;;;10439250;23;20065;-78
2021/09/14 19:47:18;;;;;;;6.83;4.07;;;;;;;;;;10336607;28;20157;-77
2021/09/14 19:52:19;;;;;;;12.07;4.10;;;;;;;;;;10370548;28;20466;-78
2021/09/14 19:57:19;;;;;;;5.33;3.87;;;;;;;;;;10372104;28;20128;-78
2021/09/14 20:02:19;;;;;;;10.00;4.87;;;;;;;;;;10351408;28;20488;-79
2021/09/14 20:07:20;;;;;;;6.47;4.40;;;;;;;;;;10365457;28;20389;-78
2021/09/14 20:12:20;;;;;;;6.50;4.43;;;;;;;;;;10349033;28;20038;-80
2021/09/14 20:17:21;;;;;;;9.10;4.50;;;;;;;;;;10364193;28;20026;-79
2021/09/14 20:22:21;;;;;;;7.73;4.67;;;;;;;;;;10375272;28;20938;-83
2021/09/14 20:27:21;;;;;;;9.73;4.10;;;;;;;;;;10376218;28;20045;-79
2021/09/14 20:32:22;;;;;;;6.70;4.22;;;;;;;;;;10370077;28;20088;-79
2021/09/14 20:37:22;;;;;;;9.83;4.30;;;;;;;;;;10375933;28;20117;-79
2021/09/14 20:42:22;;;;;;;8.40;4.43;;;;;;;;;;10368330;28;20046;-79
2021/09/14 20:47:23;;;;;;;11.50;4.90;;;;;;;;;;10371437;28;20113;-79
2021/09/14 20:52:23;;;;;;;7.60;4.60;;;;;;;;;;10369210;28;20088;-79
2021/09/14 20:57:24;;;;;;;9.40;4.47;;;;;;;;;;10357953;28;20033;-81
2021/09/14 21:02:24;;;;;;;11.52;4.82;;;;;;;;;;10368892;28;20468;-78
2021/09/14 21:07:25;;;;;;;7.57;4.27;;;;;;;;;;10371380;28;20165;-78
2021/09/14 21:12:25;;;;;;;8.00;4.70;;;;;;;;;;10357656;28;20041;-78
2021/09/14 21:17:27;;;;;;;7.67;4.60;;;;;;;;;;10366715;28;20065;-78
2021/09/14 21:22:27;;;;;;;8.57;4.72;;;;;;;;;;10349970;28;20488;-82
2021/09/14 21:27:28;;;;;;;7.68;4.50;;;;;;;;;;10368993;28;20065;-80
2021/09/14 21:32:30;;;;;;;9.63;4.67;;;;;;;;;;10370381;28;20034;-79
2021/09/14 21:37:31;;;;;;;9.95;4.53;;;;;;;;;;10359297;28;20029;-78
2021/09/14 21:42:31;;;;;;;13.63;4.72;;;;;;;;;;10372180;28;20367;-77
2021/09/14 21:47:32;;;;;;;12.50;8.52;;;;;;;;;;10367067;28;20145;-83
2021/09/14 21:52:33;;;;;;;13.90;7.63;;;;;;;;;;10343573;28;20123;-88
2021/09/14 21:57:33;;;;;;;13.13;7.23;;;;;;;;;;10344705;28;20054;-85
2021/09/14 22:02:34;;;;;;;16.70;8.73;;;;;;;;;;10354053;28;20476;-86
2021/09/14 22:07:34;;;;;;;23.27;10.23;;;;;;;;;;10379235;28;20060;-88
2021/09/14 22:12:35;;;;;;;13.75;9.90;;;;;;;;;;10355203;28;20036;-87
2021/09/14 22:17:35;;;;;;;16.83;11.57;;;;;;;;;;10351646;28;20030;-87
2021/09/14 22:22:36;;;;;;;19.43;12.10;;;;;;;;;;10355951;28;20441;-88
2021/09/14 22:27:38;;;;;;;29.60;9.67;;;;;;;;;;10336376;28;20455;-83
2021/09/14 22:32:39;;;;;;;20.45;8.63;;;;;;;;;;10360091;28;20413;-82
2021/09/14 22:37:39;;;;;;;13.20;7.07;;;;;;;;;;10372972;28;20093;-82
2021/09/14 22:42:39;;;;;;;19.63;7.80;;;;;;;;;;10368154;28;20052;-82
2021/09/14 22:47:40;;;;;;;15.88;6.57;;;;;;;;;;10373947;28;20478;-83
2021/09/14 22:52:41;;;;;;;15.47;6.73;;;;;;;;;;10369012;28;20030;-81
2021/09/14 22:57:42;;;;;;;16.15;6.10;;;;;;;;;;10341536;28;20022;-80
2021/09/14 23:02:42;;;;;;;8.20;5.95;;;;;;;;;;10377349;28;20026;-81
2021/09/14 23:07:43;;;;;;;9.35;6.28;;;;;;;;;;10366184;28;20026;-80
2021/09/14 23:12:43;;;;;;;20.27;5.80;;;;;;;;;;10381634;28;20033;-81
2021/09/14 23:17:43;;;;;;;10.20;5.37;;;;;;;;;;10340709;28;21044;-80
2021/09/14 23:22:44;;;;;;;7.23;5.43;;;;;;;;;;10366149;28;20100;-79
2021/09/14 23:27:44;;;;;;;14.95;5.35;;;;;;;;;;10365911;28;20026;-79
2021/09/14 23:32:45;;;;;;;8.63;5.57;;;;;;;;;;10348432;28;20034;-80
2021/09/14 23:37:46;;;;;;;7.95;5.28;;;;;;;;;;10367089;28;20034;-81
2021/09/14 23:42:47;;;;;;;10.82;4.95;;;;;;;;;;10370826;28;20038;-80
2021/09/14 23:47:47;;;;;;;7.97;5.25;;;;;;;;;;10352312;28;20030;-79
2021/09/14 23:52:47;;;;;;;8.60;4.80;;;;;;;;;;10366571;28;20101;-80
2021/09/14 23:57:48;;;;;;;12.37;5.30;;;;;;;;;;10369644;28;20025;-80
